Fahri Eksioglu — TCUH — position and weather

sailwx.info

Track history (hours):
 
Tides and Currents Weather Stations Pressure Air Temp Water Temp Dewpoint Dewpoint Depression Visibility Wind Speed Wind Dir Waves Ship Positions

Fahri Eksioglu

Last reported at 2014-Aug-22 01:19 UTC. Time now 2014-Aug-22 15:48 UTC.
Position N 40°46' E 029°31'.

Length 89 m; draft 5.6 m.

Type: Cargo ship. MMSI: 271000450.

Date/timePositionNaut miles runAvg speedWind from/ knotsBaromVisibWave heightAir tempDewpointWater temp
2014-Aug-22 01:19N 40°46' E 029°31'4 4.9
2014-Aug-22 00:33N 40°45' E 029°27'7 7.4
2014-Aug-21 23:34N 40°45' E 029°17'9 9.0
2014-Aug-21 22:33N 40°48' E 029°06'9 8.6
2014-Aug-21 21:28N 40°54' E 028°57'4 1.2
2014-Aug-21 18:05N 40°58' E 028°55'3 6.2
2014-Aug-21 17:34N 40°59' E 028°59'  
2014-Aug-19 07:04N 44°41' E 037°49'3 5.4
2014-Aug-19 06:30N 44°44' E 037°47'0 0.0
2014-Aug-19 05:33N 44°44' E 037°47'0 0.0
2014-Aug-19 04:33N 44°44' E 037°47'0 0.0
2014-Aug-19 03:21N 44°44' E 037°47'0 0.0
2014-Aug-19 02:21N 44°44' E 037°47'0 0.1
2014-Aug-19 01:27N 44°44' E 037°47'0 0.1
2014-Aug-19 00:18N 44°44' E 037°47'0 0.1
2014-Aug-18 23:27N 44°44' E 037°47'0 0.0
2014-Aug-18 22:21N 44°44' E 037°47'0 0.0
2014-Aug-18 21:21N 44°44' E 037°47'0 0.0
2014-Aug-18 20:30N 44°44' E 037°47'0 0.0
2014-Aug-18 19:30N 44°44' E 037°47'0 0.0
2014-Aug-18 17:21N 44°44' E 037°47'0 0.0
2014-Aug-18 16:33N 44°44' E 037°47'0 0.0
2014-Aug-18 15:33N 44°44' E 037°47'0 0.1
2014-Aug-18 14:33N 44°44' E 037°47'0 0.1
2014-Aug-18 13:33N 44°44' E 037°47'0 0.0
2014-Aug-18 12:33N 44°44' E 037°47'0 0.0
2014-Aug-18 11:18N 44°44' E 037°47'0 0.0
2014-Aug-18 10:33N 44°44' E 037°47'0 0.0
2014-Aug-18 09:33N 44°44' E 037°47'0 0.0
2014-Aug-18 08:30N 44°44' E 037°47'0 0.0
2014-Aug-18 07:27N 44°44' E 037°47'0 0.0
2014-Aug-18 06:27N 44°44' E 037°47'0 0.0
2014-Aug-18 05:33N 44°44' E 037°47'0 0.0
2014-Aug-18 04:33N 44°44' E 037°47'0 0.0
2014-Aug-18 03:30N 44°44' E 037°47'0 0.0
2014-Aug-18 02:30N 44°44' E 037°47'0 0.0
2014-Aug-18 01:33N 44°44' E 037°47'0 0.0
2014-Aug-18 00:30N 44°44' E 037°47'0 0.0
2014-Aug-17 18:33N 44°44' E 037°47'0 0.0
2014-Aug-17 17:33N 44°44' E 037°47'0 0.0
2014-Aug-17 16:33N 44°44' E 037°47'0 0.0
2014-Aug-17 15:30N 44°44' E 037°47'0 0.0
2014-Aug-17 14:33N 44°44' E 037°47'0 0.0
2014-Aug-17 13:30N 44°44' E 037°47'0 0.0
2014-Aug-17 12:33N 44°44' E 037°47'0 0.0
2014-Aug-17 11:33N 44°44' E 037°47'0 0.0
2014-Aug-17 10:33N 44°44' E 037°47'0 0.0
2014-Aug-17 09:33N 44°44' E 037°47'0 0.0
2014-Aug-17 08:33N 44°44' E 037°47'3 3.1
2014-Aug-17 07:26N 44°41' E 037°50'4 0.3
2014-Aug-16 15:27N 44°39' E 037°55'0 0.0
2014-Aug-15 19:13N 44°39' E 037°55'0 0.0
2014-Aug-15 17:09N 44°39' E 037°55'0 0.0
2014-Aug-15 16:32N 44°39' E 037°55'0 0.0
2014-Aug-15 15:24N 44°39' E 037°55'0 0.0
2014-Aug-15 14:30N 44°39' E 037°55'0 0.0
2014-Aug-15 13:28N 44°39' E 037°55'0 0.0
2014-Aug-15 12:32N 44°39' E 037°55'0 0.0
2014-Aug-15 11:32N 44°39' E 037°55'0 0.0
2014-Aug-15 10:32N 44°39' E 037°55'0 0.0
2014-Aug-15 09:32N 44°39' E 037°55'0 0.0
2014-Aug-15 08:30N 44°39' E 037°55'0 0.0
2014-Aug-15 07:33N 44°39' E 037°55'0 0.0
2014-Aug-15 04:07N 44°39' E 037°55'0 0.0
2014-Aug-15 02:10N 44°39' E 037°55'0 0.0
2014-Aug-14 09:10N 44°39' E 037°55'  
Track history (hours):
 
Tides and Currents Weather Stations Pressure Air Temp Water Temp Dewpoint Dewpoint Depression Visibility Wind Speed Wind Dir Waves Ship Positions

Fahri Eksioglu

Last reported at 2014-Aug-22 01:19 UTC. Time now 2014-Aug-22 15:48 UTC.
Position N 40°46' E 029°31'.

Length 89 m; draft 5.6 m.

Type: Cargo ship. MMSI: 271000450.

Date/timePositionNaut miles runAvg speedWind from/ knotsBaromVisibWave heightAir tempDewpointWater temp
2014-Aug-22 01:19N 40°46' E 029°31'4 4.9
2014-Aug-22 00:33N 40°45' E 029°27'7 7.4
2014-Aug-21 23:34N 40°45' E 029°17'9 9.0
2014-Aug-21 22:33N 40°48' E 029°06'9 8.6
2014-Aug-21 21:28N 40°54' E 028°57'4 1.2
2014-Aug-21 18:05N 40°58' E 028°55'3 6.2
2014-Aug-21 17:34N 40°59' E 028°59'  
2014-Aug-19 07:04N 44°41' E 037°49'3 5.4
2014-Aug-19 06:30N 44°44' E 037°47'0 0.0
2014-Aug-19 05:33N 44°44' E 037°47'0 0.0
2014-Aug-19 04:33N 44°44' E 037°47'0 0.0
2014-Aug-19 03:21N 44°44' E 037°47'0 0.0
2014-Aug-19 02:21N 44°44' E 037°47'0 0.1
2014-Aug-19 01:27N 44°44' E 037°47'0 0.1
2014-Aug-19 00:18N 44°44' E 037°47'0 0.1
2014-Aug-18 23:27N 44°44' E 037°47'0 0.0
2014-Aug-18 22:21N 44°44' E 037°47'0 0.0
2014-Aug-18 21:21N 44°44' E 037°47'0 0.0
2014-Aug-18 20:30N 44°44' E 037°47'0 0.0
2014-Aug-18 19:30N 44°44' E 037°47'0 0.0
2014-Aug-18 17:21N 44°44' E 037°47'0 0.0
2014-Aug-18 16:33N 44°44' E 037°47'0 0.0
2014-Aug-18 15:33N 44°44' E 037°47'0 0.1
2014-Aug-18 14:33N 44°44' E 037°47'0 0.1
2014-Aug-18 13:33N 44°44' E 037°47'0 0.0
2014-Aug-18 12:33N 44°44' E 037°47'0 0.0
2014-Aug-18 11:18N 44°44' E 037°47'0 0.0
2014-Aug-18 10:33N 44°44' E 037°47'0 0.0
2014-Aug-18 09:33N 44°44' E 037°47'0 0.0
2014-Aug-18 08:30N 44°44' E 037°47'0 0.0
2014-Aug-18 07:27N 44°44' E 037°47'0 0.0
2014-Aug-18 06:27N 44°44' E 037°47'0 0.0
2014-Aug-18 05:33N 44°44' E 037°47'0 0.0
2014-Aug-18 04:33N 44°44' E 037°47'0 0.0
2014-Aug-18 03:30N 44°44' E 037°47'0 0.0
2014-Aug-18 02:30N 44°44' E 037°47'0 0.0
2014-Aug-18 01:33N 44°44' E 037°47'0 0.0
2014-Aug-18 00:30N 44°44' E 037°47'0 0.0
2014-Aug-17 18:33N 44°44' E 037°47'0 0.0
2014-Aug-17 17:33N 44°44' E 037°47'0 0.0
2014-Aug-17 16:33N 44°44' E 037°47'0 0.0
2014-Aug-17 15:30N 44°44' E 037°47'0 0.0
2014-Aug-17 14:33N 44°44' E 037°47'0 0.0
2014-Aug-17 13:30N 44°44' E 037°47'0 0.0
2014-Aug-17 12:33N 44°44' E 037°47'0 0.0
2014-Aug-17 11:33N 44°44' E 037°47'0 0.0
2014-Aug-17 10:33N 44°44' E 037°47'0 0.0
2014-Aug-17 09:33N 44°44' E 037°47'0 0.0
2014-Aug-17 08:33N 44°44' E 037°47'3 3.1
2014-Aug-17 07:26N 44°41' E 037°50'4 0.3
2014-Aug-16 15:27N 44°39' E 037°55'0 0.0
2014-Aug-15 19:13N 44°39' E 037°55'0 0.0
2014-Aug-15 17:09N 44°39' E 037°55'0 0.0
2014-Aug-15 16:32N 44°39' E 037°55'0 0.0
2014-Aug-15 15:24N 44°39' E 037°55'0 0.0
2014-Aug-15 14:30N 44°39' E 037°55'0 0.0
2014-Aug-15 13:28N 44°39' E 037°55'0 0.0
2014-Aug-15 12:32N 44°39' E 037°55'0 0.0
2014-Aug-15 11:32N 44°39' E 037°55'0 0.0
2014-Aug-15 10:32N 44°39' E 037°55'0 0.0
2014-Aug-15 09:32N 44°39' E 037°55'0 0.0
2014-Aug-15 08:30N 44°39' E 037°55'0 0.0
2014-Aug-15 07:33N 44°39' E 037°55'0 0.0
2014-Aug-15 04:07N 44°39' E 037°55'0 0.0
2014-Aug-15 02:10N 44°39' E 037°55'0 0.0
2014-Aug-14 09:10N 44°39' E 037°55'  

Dump ship's entire track history